createdAt,value
2023-08-26T00:07:01.310Z,89.82
2023-08-26T00:22:02.982Z,90.67
2023-08-26T00:37:05.101Z,87.30
2023-08-26T00:52:07.631Z,86.78
2023-08-26T01:07:09.388Z,86.00
2023-08-26T01:22:11.884Z,89.43
2023-08-26T01:37:14.509Z,91.62
2023-08-26T01:52:16.317Z,94.78
2023-08-26T02:07:18.020Z,91.45
2023-08-26T02:22:19.787Z,88.78
2023-08-26T02:37:22.686Z,99.43
2023-08-26T02:52:24.350Z,99.83
2023-08-26T03:07:26.056Z,97.11
2023-08-26T03:22:27.874Z,99.58
2023-08-26T03:37:29.626Z,96.88
2023-08-26T03:52:31.323Z,99.41
2023-08-26T04:07:32.946Z,100.00
2023-08-26T04:22:34.829Z,100.00
2023-08-26T04:37:38.086Z,100.00
2023-08-26T04:52:41.157Z,100.00
2023-08-26T05:07:42.949Z,99.72
2023-08-26T05:22:44.650Z,94.27
2023-08-26T05:37:46.510Z,90.40
2023-08-26T05:52:48.410Z,95.71
2023-08-26T06:07:53.406Z,91.39
2023-08-26T06:22:55.103Z,88.31
2023-08-26T06:37:57.142Z,77.43
2023-08-26T06:52:58.998Z,75.15
2023-08-26T07:08:00.722Z,75.07
2023-08-26T07:23:02.445Z,73.48
2023-08-26T07:38:04.364Z,73.08
2023-08-26T07:53:06.745Z,70.47
2023-08-26T08:08:08.534Z,69.62
2023-08-26T08:23:10.747Z,64.11
2023-08-26T08:38:13.175Z,61.04
2023-08-26T08:53:17.677Z,58.89
2023-08-26T09:08:20.960Z,57.55
2023-08-26T09:23:23.157Z,56.34
2023-08-26T09:38:24.855Z,54.81
2023-08-26T09:53:31.939Z,55.87
2023-08-26T10:08:37.145Z,53.71
2023-08-26T10:23:40.857Z,51.67
2023-08-26T10:38:55.860Z,46.64
2023-08-26T10:54:06.864Z,46.48
2023-08-26T11:09:09.493Z,47.21
2023-08-26T11:24:11.209Z,43.80
2023-08-26T11:39:19.424Z,41.59
2023-08-26T11:54:28.088Z,41.76
2023-08-26T12:09:29.900Z,41.84
2023-08-26T12:24:31.628Z,41.51
2023-08-26T12:39:33.648Z,38.96
2023-08-26T12:54:35.310Z,39.09
2023-08-26T13:09:36.971Z,36.06
2023-08-26T13:24:38.641Z,36.25
2023-08-26T13:39:40.357Z,37.01
2023-08-26T13:54:42.001Z,34.45
2023-08-26T14:09:43.701Z,35.41
2023-08-26T14:24:49.158Z,35.07
2023-08-26T14:39:50.874Z,44.38
2023-08-26T14:54:52.772Z,47.25
2023-08-26T15:09:54.516Z,46.93
2023-08-26T15:24:56.698Z,48.25
2023-08-26T15:39:58.506Z,47.89
2023-08-26T15:55:00.451Z,47.76
2023-08-26T16:10:02.887Z,48.61
2023-08-26T16:25:05.436Z,50.18
2023-08-26T16:40:07.698Z,49.78
2023-08-26T16:55:09.572Z,50.57
2023-08-26T17:10:11.263Z,50.44
2023-08-26T17:25:12.946Z,51.10
2023-08-26T17:40:14.755Z,51.45
2023-08-26T17:55:16.532Z,53.84
2023-08-26T18:10:18.219Z,55.87
2023-08-26T18:25:20.360Z,54.11
2023-08-26T18:40:24.777Z,52.87
2023-08-26T18:55:27.544Z,53.19
2023-08-26T19:10:29.210Z,53.58
2023-08-26T19:25:31.212Z,57.44
2023-08-26T19:40:33.551Z,59.17
2023-08-26T19:55:35.389Z,63.46
2023-08-26T20:10:37.328Z,67.70
2023-08-26T20:25:47.448Z,67.40
2023-08-26T20:40:49.943Z,72.75
2023-08-26T20:55:54.900Z,71.87
2023-08-26T21:10:56.601Z,68.80
2023-08-26T21:25:58.352Z,71.09
2023-08-26T21:41:05.393Z,64.70
2023-08-26T21:56:07.284Z,69.32
2023-08-26T22:11:09.146Z,69.68
2023-08-26T22:26:10.858Z,71.00
2023-08-26T22:41:15.197Z,73.80
2023-08-26T22:56:16.864Z,73.63
2023-08-26T23:11:18.596Z,74.91
2023-08-26T23:26:20.376Z,74.95
2023-08-26T23:41:22.105Z,73.99
2023-08-26T23:56:24.054Z,76.40
